Time;durP1;ratioP1;P1;durP2;ratioP2;P2;SDS_P1;SDS_P2;PMS_P1;PMS_P2;Temp;Humidity;BMP_temperature;BMP_pressure;BME280_temperature;BME280_humidity;BME280_pressure;Samples;Min_cycle;Max_cycle;Signal;HPM_P1;HPM_P2
2024/01/11 00:04:00;;;;;;;23.77;15.63;;;;;;;-1.15;41.37;100371.75;10316775;28;20236;-37
2024/01/11 00:09:02;;;;;;;26.40;14.83;;;;;;;-1.01;40.86;100387.50;10318781;28;20704;-37
2024/01/11 00:14:04;;;;;;;24.97;15.07;;;;;;;-1.12;41.51;100358.44;10323101;28;20698;-39
2024/01/11 00:19:05;;;;;;;20.17;14.53;;;;;;;-1.01;41.40;100343.72;10325424;28;20317;-40
2024/01/11 00:24:07;;;;;;;24.77;14.30;;;;;;;-0.55;41.05;100278.66;10320962;28;20230;-37
2024/01/11 00:29:09;;;;;;;25.90;15.23;;;;;;;-0.90;41.01;100348.28;10324454;28;20236;-41
2024/01/11 00:34:11;;;;;;;30.80;17.10;;;;;;;-1.10;40.54;100480.03;10322586;28;20262;-38
2024/01/11 00:39:13;;;;;;;26.53;16.30;;;;;;;-1.29;40.86;100510.00;10317004;28;20232;-40
2024/01/11 00:44:15;;;;;;;31.87;15.13;;;;;;;-1.21;41.06;100454.38;10305540;28;20279;-40
2024/01/11 00:49:17;;;;;;;23.07;15.87;;;;;;;-2.04;41.69;100625.25;10313827;28;20253;-38
2024/01/11 00:54:18;;;;;;;20.77;15.27;;;;;;;-2.44;42.14;100708.66;10321725;28;20231;-37
2024/01/11 00:59:20;;;;;;;25.77;16.70;;;;;;;-1.37;42.37;100323.16;10321722;28;20324;-40
2024/01/11 01:04:22;;;;;;;20.37;14.87;;;;;;;-2.17;42.94;100499.22;10321321;28;20756;-39
2024/01/11 01:09:24;;;;;;;24.97;16.63;;;;;;;-2.98;44.20;100621.38;10323803;28;20233;-38
2024/01/11 01:14:25;;;;;;;24.73;15.73;;;;;;;-2.44;43.82;100449.13;10320971;28;20316;-38
2024/01/11 01:19:27;;;;;;;25.07;16.40;;;;;;;-2.53;43.56;100515.97;10323290;28;20237;-36
2024/01/11 01:24:30;;;;;;;25.70;15.60;;;;;;;-2.77;43.97;100546.94;10320429;28;20595;-37
2024/01/11 01:29:32;;;;;;;22.23;15.17;;;;;;;-2.44;43.89;100443.03;10323063;28;20239;-40
2024/01/11 01:34:34;;;;;;;23.83;15.63;;;;;;;-2.35;43.64;100421.56;10308069;28;20598;-34
2024/01/11 01:39:39;;;;;;;25.07;14.07;;;;;;;-2.42;44.39;100375.66;10321818;28;20244;-37
2024/01/11 01:44:41;;;;;;;27.57;18.30;;;;;;;-2.14;43.47;100386.28;10316663;28;20472;-38
2024/01/11 01:49:44;;;;;;;26.27;15.77;;;;;;;-1.32;42.72;100202.94;10322533;28;20301;-38
2024/01/11 01:54:48;;;;;;;23.87;16.30;;;;;;;-2.58;44.37;100449.03;10319151;28;20324;-40
2024/01/11 01:59:54;;;;;;;26.17;16.87;;;;;;;-2.09;43.46;100370.25;10320845;28;20318;-38
2024/01/11 02:04:57;;;;;;;21.47;14.27;;;;;;;-1.80;43.40;100333.59;10315969;28;20281;-39
2024/01/11 02:09:59;;;;;;;25.83;16.67;;;;;;;-2.21;43.63;100410.28;10321296;28;20236;-38
2024/01/11 02:15:03;;;;;;;21.90;15.07;;;;;;;-1.58;43.09;100260.53;10318372;28;20372;-39
2024/01/11 02:20:06;;;;;;;25.33;16.17;;;;;;;-1.85;43.81;100270.94;10320794;28;20246;-41
2024/01/11 02:25:08;;;;;;;26.73;15.90;;;;;;;-1.84;42.78;100387.22;10319678;28;20282;-41
2024/01/11 02:30:10;;;;;;;21.30;15.47;;;;;;;-3.58;45.26;100671.34;10322982;28;20332;-41
2024/01/11 02:35:14;;;;;;;25.07;16.97;;;;;;;-2.61;44.31;100434.31;10316341;28;20264;-40
2024/01/11 02:40:16;;;;;;;25.03;15.33;;;;;;;-2.41;44.46;100351.94;10322183;28;20704;-37
2024/01/11 02:45:18;;;;;;;25.23;16.53;;;;;;;-3.50;45.42;100596.78;10319367;28;20263;-41
2024/01/11 02:50:20;;;;;;;26.97;16.83;;;;;;;-2.99;44.87;100531.47;10320562;28;20238;-41
2024/01/11 02:55:24;;;;;;;24.87;16.13;;;;;;;-2.23;44.19;100312.53;10319791;28;20308;-39
2024/01/11 03:00:26;;;;;;;21.57;15.03;;;;;;;-2.68;43.75;100528.13;10319791;28;20745;-41
2024/01/11 03:05:28;;;;;;;21.43;15.27;;;;;;;-2.92;44.71;100530.22;10319719;28;20266;-36
2024/01/11 03:10:30;;;;;;;24.90;15.43;;;;;;;-2.32;44.47;100330.47;10321864;28;20248;-39
2024/01/11 03:15:32;;;;;;;29.57;15.13;;;;;;;-1.93;44.04;100237.28;10319602;28;20252;-41
2024/01/11 03:20:33;;;;;;;24.53;16.23;;;;;;;-2.67;44.48;100409.28;10321938;28;20648;-43
2024/01/11 03:25:35;;;;;;;25.97;15.17;;;;;;;-2.90;44.28;100510.03;10318290;28;20294;-38
2024/01/11 03:30:37;;;;;;;27.37;16.23;;;;;;;-3.20;44.97;100549.06;10320797;28;20772;-38
2024/01/11 03:35:40;;;;;;;28.53;15.53;;;;;;;-1.56;43.13;100195.66;10318628;28;20263;-42
2024/01/11 03:40:42;;;;;;;25.57;15.90;;;;;;;-2.96;44.97;100471.09;10314535;28;20329;-41
2024/01/11 03:45:43;;;;;;;20.37;15.20;;;;;;;-2.63;45.38;100293.81;10321120;28;20292;-41
2024/01/11 03:50:45;;;;;;;24.97;16.03;;;;;;;-2.62;45.33;100303.38;10328263;28;20244;-41
2024/01/11 03:55:47;;;;;;;31.40;15.90;;;;;;;-3.54;46.09;100519.34;10325779;28;20287;-41
2024/01/11 04:00:49;;;;;;;22.60;15.53;;;;;;;-3.13;45.73;100393.38;10329621;28;20314;-41
2024/01/11 04:05:50;;;;;;;25.13;15.20;;;;;;;-3.59;45.69;100510.84;10326911;28;20267;-42
2024/01/11 04:10:52;;;;;;;26.23;16.93;;;;;;;-3.81;46.32;100526.75;10328136;28;20321;-38
2024/01/11 04:15:54;;;;;;;25.07;17.30;;;;;;;-3.57;46.29;100475.03;10325128;28;20331;-38
2024/01/11 04:20:56;;;;;;;25.30;17.13;;;;;;;-2.88;45.51;100327.47;10327348;28;20773;-38
2024/01/11 04:25:57;;;;;;;26.73;16.27;;;;;;;-2.84;45.89;100278.38;10324585;28;20232;-42
2024/01/11 04:30:59;;;;;;;24.33;15.87;;;;;;;-3.42;45.71;100469.03;10326105;28;20585;-38
2024/01/11 04:36:01;;;;;;;27.87;16.33;;;;;;;-3.11;45.75;100339.16;10324717;28;20737;-40
2024/01/11 04:41:07;;;;;;;24.43;15.80;;;;;;;-3.43;46.32;100420.22;10322941;28;20330;-41
2024/01/11 04:46:16;;;;;;;25.80;15.90;;;;;;;-2.61;45.48;100223.81;10324388;28;20259;-40
2024/01/11 04:51:18;;;;;;;27.67;16.23;;;;;;;-3.72;46.26;100500.16;10323721;28;20237;-41
2024/01/11 04:56:20;;;;;;;24.87;15.93;;;;;;;-2.73;45.65;100230.59;10325219;28;20234;-41
2024/01/11 05:05:15;;;;;;;21.97;15.77;;;;;;;-3.86;47.46;100194.81;10536327;27;20342;-64
2024/01/11 05:10:17;;;;;;;21.63;14.97;;;;;;;-4.29;47.71;100359.09;10470973;28;20234;-63
2024/01/11 05:15:18;;;;;;;25.30;15.67;;;;;;;-3.65;47.18;100195.47;10501271;28;20236;-63
2024/01/11 05:20:20;;;;;;;26.83;16.03;;;;;;;-3.42;47.37;100149.75;10519528;28;20712;-63
2024/01/11 05:25:22;;;;;;;27.53;17.50;;;;;;;-3.05;46.19;100184.34;10518029;28;20236;-63
2024/01/11 05:30:23;;;;;;;23.53;16.07;;;;;;;-3.53;47.16;100264.59;10526672;28;20234;-64
2024/01/11 05:35:28;;;;;;;26.53;17.37;;;;;;;-2.93;46.41;100137.44;10525086;28;20251;-64
2024/01/11 05:40:30;;;;;;;26.07;16.73;;;;;;;-3.24;45.89;100288.38;10532804;28;20249;-65
2024/01/11 05:45:33;;;;;;;24.07;16.07;;;;;;;-2.89;45.76;100214.94;10522823;28;20325;-64
2024/01/11 05:50:48;;;;;;;31.07;16.87;;;;;;;-4.18;47.26;100513.66;10518182;28;20224;-64
2024/01/11 05:55:50;;;;;;;24.97;14.97;;;;;;;-3.84;47.03;100431.00;10532319;28;20669;-64
2024/01/11 06:00:56;;;;;;;23.83;16.07;;;;;;;-3.82;47.29;100391.69;10526630;28;20249;-65
2024/01/11 06:05:58;;;;;;;27.00;17.20;;;;;;;-3.67;46.63;100358.66;10513885;28;20237;-64
2024/01/11 06:11:00;;;;;;;27.30;17.13;;;;;;;-4.60;48.38;100527.75;10514138;28;20312;-64
2024/01/11 06:16:02;;;;;;;25.73;16.87;;;;;;;-3.59;47.18;100251.84;10496753;28;20241;-65
2024/01/11 06:21:05;;;;;;;28.47;17.23;;;;;;;-3.77;47.83;100253.66;10531052;28;20238;-64
2024/01/11 06:26:07;;;;;;;25.93;17.93;;;;;;;-3.61;47.63;100243.22;10534415;28;20248;-64
2024/01/11 06:31:10;;;;;;;26.33;18.37;;;;;;;-3.60;47.63;100242.31;10531063;28;20258;-64
2024/01/11 06:36:12;;;;;;;30.13;16.60;;;;;;;-3.12;46.68;100172.50;10530947;28;20318;-64
2024/01/11 06:41:14;;;;;;;24.53;17.63;;;;;;;-3.51;47.53;100239.19;10534252;28;20248;-64
2024/01/11 06:46:21;;;;;;;24.90;16.87;;;;;;;-3.70;47.31;100296.88;10533710;28;20247;-64
2024/01/11 06:51:23;;;;;;;26.03;15.53;;;;;;;-3.71;47.85;100278.66;10526162;28;20252;-64
2024/01/11 06:56:25;;;;;;;25.33;16.80;;;;;;;-4.09;48.24;100357.25;10531614;28;20236;-64
2024/01/11 07:01:26;;;;;;;28.27;16.63;;;;;;;-4.24;47.99;100425.06;10526529;28;20236;-64
2024/01/11 07:06:28;;;;;;;27.33;17.07;;;;;;;-4.50;48.71;100459.41;10527983;28;20612;-64
2024/01/11 07:11:32;;;;;;;24.30;17.70;;;;;;;-4.92;48.72;100571.78;10529629;28;20235;-64
2024/01/11 07:16:33;;;;;;;28.60;15.87;;;;;;;-4.00;47.27;100364.66;10525807;28;20331;-64
2024/01/11 07:21:35;;;;;;;23.47;15.77;;;;;;;-3.66;47.59;100240.84;10526109;28;22086;-64
2024/01/11 07:26:37;;;;;;;26.03;16.33;;;;;;;-4.45;48.27;100442.56;10527157;28;20258;-64
2024/01/11 07:31:39;;;;;;;29.73;17.30;;;;;;;-4.87;48.95;100515.88;10527742;28;20588;-64
2024/01/11 07:36:41;;;;;;;24.90;13.93;;;;;;;-5.65;49.81;100687.75;10526589;28;20245;-64
2024/01/11 07:41:42;;;;;;;26.40;17.00;;;;;;;-5.38;49.61;100599.75;10526555;28;20663;-64
2024/01/11 07:46:44;;;;;;;27.60;18.20;;;;;;;-4.48;49.06;100364.38;10521870;28;20741;-64
2024/01/11 07:51:54;;;;;;;32.47;19.60;;;;;;;-4.34;48.52;100368.94;10527475;28;20238;-64
2024/01/11 07:56:56;;;;;;;30.10;18.50;;;;;;;-4.44;48.79;100383.34;10525689;28;20241;-64
2024/01/11 08:01:58;;;;;;;24.77;16.50;;;;;;;-4.01;48.60;100298.47;10527829;28;20268;-64
2024/01/11 08:07:00;;;;;;;31.47;18.13;;;;;;;-4.44;48.59;100431.22;10525555;28;20314;-64
2024/01/11 08:12:01;;;;;;;30.07;18.40;;;;;;;-3.66;48.31;100230.38;10522531;28;20233;-64
2024/01/11 08:17:04;;;;;;;24.63;17.93;;;;;;;-3.17;47.01;100231.28;10530306;28;20586;-64
2024/01/11 08:22:06;;;;;;;28.13;17.37;;;;;;;-4.32;47.79;100581.38;10526044;28;20232;-64
2024/01/11 08:27:08;;;;;;;29.53;18.90;;;;;;;-3.22;47.08;100337.13;10507414;28;20233;-64
2024/01/11 08:32:10;;;;;;;26.70;17.60;;;;;;;-2.45;45.95;100245.59;10526365;28;20807;-64
2024/01/11 08:37:24;;;;;;;27.77;17.73;;;;;;;-2.16;45.15;100403.84;10521429;28;20344;-64
2024/01/11 08:42:26;;;;;;;27.83;18.07;;;;;;;-2.43;46.16;100398.38;10524016;28;20712;-65
2024/01/11 08:47:28;;;;;;;27.60;20.50;;;;;;;-3.09;45.77;100685.56;10534331;28;20230;-65
2024/01/11 08:52:30;;;;;;;31.07;23.00;;;;;;;-2.40;45.68;100494.38;10521272;28;20793;-64
2024/01/11 08:57:31;;;;;;;23.57;18.03;;;;;;;-1.18;44.61;100322.88;10530029;28;20247;-64
2024/01/11 09:02:34;;;;;;;26.43;18.57;;;;;;;-2.05;46.10;100423.38;10503759;28;20304;-64
2024/01/11 09:07:36;;;;;;;30.67;18.23;;;;;;;-1.20;44.34;100385.16;10526646;28;20306;-64
2024/01/11 09:12:38;;;;;;;27.30;18.33;;;;;;;-1.74;44.80;100587.81;10527484;28;20651;-65
2024/01/11 09:17:39;;;;;;;30.17;18.50;;;;;;;-0.38;44.09;100338.03;10522721;28;20236;-65
2024/01/11 09:22:41;;;;;;;27.33;18.33;;;;;;;-2.01;45.49;100627.72;10525080;28;20233;-65
2024/01/11 09:27:43;;;;;;;29.87;18.93;;;;;;;-0.72;44.06;100419.88;10520168;28;20291;-65
2024/01/11 09:32:45;;;;;;;28.90;19.50;;;;;;;-1.90;44.79;100689.25;10524871;28;20660;-65
2024/01/11 09:37:47;;;;;;;32.03;20.70;;;;;;;-2.27;45.25;100735.75;10530896;28;20245;-65
2024/01/11 09:42:49;;;;;;;33.77;23.40;;;;;;;-3.55;46.72;100933.72;10502985;28;20244;-65
2024/01/11 09:47:52;;;;;;;28.33;19.97;;;;;;;-1.61;46.04;100462.00;10523326;28;20234;-64
2024/01/11 09:52:54;;;;;;;31.13;20.47;;;;;;;-2.43;45.92;100683.25;10526607;28;20233;-64
2024/01/11 09:57:59;;;;;;;31.17;20.17;;;;;;;-1.70;45.42;100586.69;10530064;28;20298;-65
2024/01/11 10:03:01;;;;;;;29.70;19.10;;;;;;;-0.94;44.75;100457.16;10527964;28;20237;-64
2024/01/11 10:08:03;;;;;;;53.90;28.63;;;;;;;-1.33;44.55;100573.28;10520736;28;20207;-65
2024/01/11 10:13:05;;;;;;;31.77;19.13;;;;;;;-0.91;44.42;100480.59;10532055;28;20223;-65
2024/01/11 10:18:07;;;;;;;29.57;18.40;;;;;;;-0.47;43.99;100447.28;10530049;28;20216;-65
2024/01/11 10:23:08;;;;;;;24.40;17.17;;;;;;;-1.23;44.38;100593.66;10531610;28;20277;-65
2024/01/11 10:28:13;;;;;;;29.63;19.70;;;;;;;-1.17;44.23;100556.56;10516887;28;20242;-65
2024/01/11 10:33:15;;;;;;;29.60;19.27;;;;;;;-1.15;43.86;100660.69;10539675;28;20241;-65
2024/01/11 10:38:17;;;;;;;27.73;19.20;;;;;;;-0.48;43.76;100538.47;10529205;28;20314;-65
2024/01/11 10:43:21;;;;;;;29.13;19.63;;;;;;;0.10;42.90;100604.22;10532551;28;20260;-65
2024/01/11 10:48:25;;;;;;;32.30;21.63;;;;;;;-1.68;44.11;100867.44;10525554;28;20235;-65
2024/01/11 10:53:45;;;;;;;150.93;80.13;;;;;;;-0.73;43.74;100690.72;10535045;28;20238;-65
2024/01/11 10:58:48;;;;;;;39.47;26.70;;;;;;;-1.05;44.15;100766.97;10528386;28;20623;-65
2024/01/11 11:06:14;;;;;;;29.37;19.60;;;;;;;-1.31;45.39;100681.69;10449482;27;2117009;-65
2024/01/11 11:11:18;;;;;;;34.03;21.90;;;;;;;-1.56;44.80;100701.44;10475173;28;20757;-65
2024/01/11 11:16:20;;;;;;;40.53;31.60;;;;;;;-0.95;44.77;100544.78;10474781;28;20266;-65
2024/01/11 11:21:21;;;;;;;40.47;27.50;;;;;;;-1.45;44.92;100682.47;10460896;28;20274;-65
2024/01/11 11:26:26;;;;;;;32.73;21.43;;;;;;;0.11;43.89;100409.34;10474513;28;20745;-65
2024/01/11 11:31:53;;;;;;;29.73;20.30;;;;;;;-0.18;43.78;100487.56;10470108;28;20321;-65
2024/01/11 11:36:56;;;;;;;40.07;23.67;;;;;;;-1.06;45.05;100620.75;10469393;28;20231;-65
2024/01/11 11:42:00;;;;;;;29.80;19.53;;;;;;;-0.16;43.64;100553.22;10463659;28;20270;-65
2024/01/11 11:47:22;;;;;;;39.57;26.27;;;;;;;0.61;42.67;100507.03;10469597;28;20259;-65
2024/01/11 11:52:25;;;;;;;38.93;24.97;;;;;;;-0.56;44.10;100740.56;10467827;28;20235;-64
2024/01/11 11:57:28;;;;;;;34.63;23.57;;;;;;;-0.35;44.15;100606.09;10465450;28;20454;-66
2024/01/11 12:02:30;;;;;;;38.93;21.13;;;;;;;-0.17;43.60;100643.59;10465288;28;20253;-66
2024/01/11 12:07:33;;;;;;;36.57;23.57;;;;;;;-1.30;43.98;100896.13;10471377;28;20248;-63
2024/01/11 12:12:36;;;;;;;35.00;21.50;;;;;;;0.14;43.29;100566.25;10495998;28;20718;-64
2024/01/11 12:17:42;;;;;;;32.77;21.90;;;;;;;0.23;43.51;100584.06;10477478;28;20288;-64
2024/01/11 12:22:44;;;;;;;34.77;21.70;;;;;;;-0.84;44.66;100757.88;10473066;28;20299;-64
2024/01/11 12:27:46;;;;;;;44.67;26.77;;;;;;;0.02;43.33;100659.09;10482021;28;20235;-64
2024/01/11 12:32:47;;;;;;;67.87;38.83;;;;;;;0.30;43.50;100540.59;10437144;28;20241;-65
2024/01/11 12:38:06;;;;;;;36.73;20.17;;;;;;;0.39;43.69;100533.06;10443312;28;20270;-64
2024/01/11 12:43:08;;;;;;;31.53;19.10;;;;;;;-0.38;43.76;100732.53;10474633;28;20235;-66
2024/01/11 12:48:13;;;;;;;30.53;19.43;;;;;;;-0.07;43.17;100703.47;10483997;28;20258;-63
2024/01/11 12:53:18;;;;;;;30.23;20.63;;;;;;;0.10;43.62;100656.84;10479189;28;20772;-64
2024/01/11 12:58:25;;;;;;;34.73;21.90;;;;;;;0.04;43.35;100665.97;10475495;28;20240;-64
2024/01/11 13:03:28;;;;;;;29.83;19.57;;;;;;;0.85;43.37;100435.19;10479718;28;20236;-64
2024/01/11 13:08:36;;;;;;;31.20;19.57;;;;;;;-0.06;43.07;100680.66;10481604;28;20237;-64
2024/01/11 13:13:38;;;;;;;26.97;19.37;;;;;;;0.65;42.61;100565.59;10475708;28;20674;-64
2024/01/11 13:18:40;;;;;;;38.33;23.13;;;;;;;0.60;42.82;100586.13;10475798;28;20373;-64
2024/01/11 13:23:42;;;;;;;26.23;19.60;;;;;;;0.96;42.35;100526.66;10480420;28;20236;-64
2024/01/11 13:28:44;;;;;;;26.73;18.67;;;;;;;0.93;42.29;100574.31;10481458;28;20243;-64
2024/01/11 13:33:45;;;;;;;26.03;18.00;;;;;;;0.67;42.38;100604.06;10478383;28;20337;-64
2024/01/11 13:38:49;;;;;;;27.40;19.60;;;;;;;-0.21;43.47;100782.38;10481823;28;20237;-64
2024/01/11 13:43:50;;;;;;;26.00;16.97;;;;;;;0.91;41.76;100621.00;10479636;28;20758;-64
2024/01/11 13:48:53;;;;;;;29.23;19.33;;;;;;;0.57;41.91;100668.81;10481907;28;20263;-64
2024/01/11 13:53:54;;;;;;;27.13;17.47;;;;;;;0.46;41.60;100740.63;10474326;28;20246;-64
2024/01/11 13:58:56;;;;;;;28.37;17.43;;;;;;;0.84;41.63;100699.63;10482038;28;20233;-65
2024/01/11 14:03:58;;;;;;;26.13;17.43;;;;;;;0.93;41.30;100791.25;10468859;28;20252;-66
2024/01/11 14:08:59;;;;;;;30.10;18.93;;;;;;;1.56;41.06;100712.56;10479890;28;20231;-65
2024/01/11 14:14:04;;;;;;;26.83;19.10;;;;;;;0.50;42.02;100847.47;10477451;28;20323;-65
2024/01/11 14:19:06;;;;;;;28.50;17.70;;;;;;;-0.07;42.44;100953.44;10483280;28;20240;-65
2024/01/11 14:24:08;;;;;;;29.63;18.30;;;;;;;0.59;41.88;100793.38;10474793;28;20772;-65
2024/01/11 14:29:10;;;;;;;31.87;19.90;;;;;;;1.86;41.33;100566.22;10483693;28;20749;-65
2024/01/11 14:34:12;;;;;;;27.87;18.50;;;;;;;1.38;40.95;100785.81;10475035;28;20237;-64
2024/01/11 14:39:14;;;;;;;27.40;17.57;;;;;;;1.65;40.57;100711.91;10481300;28;20714;-65
2024/01/11 14:44:16;;;;;;;27.03;18.57;;;;;;;2.47;39.53;100786.41;10471170;28;20696;-65
2024/01/11 14:49:18;;;;;;;24.10;17.90;;;;;;;2.37;39.61;100817.06;10474565;28;20236;-66
2024/01/11 14:54:20;;;;;;;26.93;17.90;;;;;;;0.57;41.08;101005.16;10472825;28;20723;-65
2024/01/11 14:59:22;;;;;;;26.47;17.23;;;;;;;0.82;41.41;100922.88;10482519;28;20230;-66
2024/01/11 15:04:24;;;;;;;26.57;17.67;;;;;;;1.17;41.22;100724.72;10472051;28;20294;-69
2024/01/11 15:09:26;;;;;;;25.70;17.30;;;;;;;0.53;41.28;100946.53;10473992;28;20309;-68
2024/01/11 15:14:27;;;;;;;24.53;17.37;;;;;;;0.86;41.21;100892.75;10473018;28;20243;-64
2024/01/11 15:19:29;;;;;;;24.87;16.77;;;;;;;1.83;40.04;100748.56;10474455;28;20661;-69
2024/01/11 15:24:32;;;;;;;25.83;16.47;;;;;;;1.36;39.72;100936.25;10471532;28;20333;-66
2024/01/11 15:29:34;;;;;;;27.67;16.97;;;;;;;1.94;39.64;100775.91;10475714;28;20233;-64
2024/01/11 15:34:36;;;;;;;24.83;17.50;;;;;;;1.41;39.75;100942.09;10474516;28;20648;-65
2024/01/11 15:39:37;;;;;;;27.90;16.70;;;;;;;1.03;40.12;100966.38;10480361;28;20327;-64
2024/01/11 15:44:39;;;;;;;22.50;16.47;;;;;;;1.17;40.96;100819.66;10468203;28;20316;-64
2024/01/11 15:49:41;;;;;;;27.57;18.53;;;;;;;0.05;41.83;101016.88;10476469;28;20257;-65
2024/01/11 15:54:43;;;;;;;26.97;17.30;;;;;;;0.83;41.45;100817.38;10473727;28;20322;-64
2024/01/11 15:59:45;;;;;;;25.90;17.43;;;;;;;0.29;41.81;100960.22;10458709;28;20228;-65
2024/01/11 16:04:47;;;;;;;29.90;18.30;;;;;;;1.05;41.14;100819.50;10455812;28;20441;-65
2024/01/11 16:09:49;;;;;;;27.23;18.13;;;;;;;0.72;41.58;100861.97;10455879;28;20232;-65
2024/01/11 16:14:53;;;;;;;40.73;24.77;;;;;;;1.12;41.05;100827.00;10472098;28;20323;-66
2024/01/11 16:19:55;;;;;;;34.87;21.23;;;;;;;1.35;40.80;100805.31;10485835;28;20232;-65
2024/01/11 16:24:57;;;;;;;33.27;20.87;;;;;;;1.19;40.85;100850.25;10477858;28;20248;-71
2024/01/11 16:29:58;;;;;;;41.63;27.80;;;;;;;-0.35;42.29;101095.34;10484766;28;20237;-65
2024/01/11 16:35:04;;;;;;;26.00;17.63;;;;;;;1.94;40.18;100727.56;10481323;28;20230;-65
2024/01/11 16:40:09;;;;;;;31.53;19.53;;;;;;;0.87;41.22;100939.25;10482070;28;20323;-68
2024/01/11 16:45:12;;;;;;;26.97;18.33;;;;;;;1.65;40.31;100835.09;10478096;28;20986;-67
2024/01/11 16:50:13;;;;;;;33.33;22.23;;;;;;;0.76;40.62;101073.44;10474943;28;20238;-68
2024/01/11 16:55:15;;;;;;;36.67;24.07;;;;;;;1.20;40.58;100903.84;10459187;28;20237;-67
2024/01/11 17:00:19;;;;;;;39.37;26.73;;;;;;;0.86;41.78;100830.38;10463340;28;20668;-70
2024/01/11 17:05:21;;;;;;;33.33;21.17;;;;;;;1.24;40.42;100913.28;10477633;28;20236;-68
2024/01/11 17:10:23;;;;;;;33.80;24.10;;;;;;;1.63;40.28;100837.00;10483536;28;20244;-65
2024/01/11 17:15:26;;;;;;;29.37;18.27;;;;;;;1.39;40.19;100883.31;10480765;28;20269;-64
2024/01/11 17:20:28;;;;;;;28.20;18.07;;;;;;;1.89;39.96;100782.47;10481837;28;20634;-67
2024/01/11 17:25:30;;;;;;;28.03;19.23;;;;;;;0.58;41.13;101065.66;10472327;28;20236;-69
2024/01/11 17:30:31;;;;;;;28.43;19.33;;;;;;;0.82;40.69;101023.84;10479846;28;20238;-67
2024/01/11 17:35:33;;;;;;;29.67;19.90;;;;;;;0.35;42.11;101002.91;10467120;28;20243;-65
2024/01/11 17:40:35;;;;;;;31.97;21.70;;;;;;;0.73;41.50;100921.66;10482952;28;20316;-65
2024/01/11 17:45:39;;;;;;;31.27;19.70;;;;;;;1.09;40.59;100908.94;10472805;28;20621;-65
2024/01/11 17:50:41;;;;;;;32.27;19.80;;;;;;;-0.20;42.13;101112.09;10481779;28;20236;-65
2024/01/11 17:55:44;;;;;;;29.73;20.17;;;;;;;-0.59;42.74;101150.88;10472656;28;20239;-65
2024/01/11 18:00:47;;;;;;;26.63;18.23;;;;;;;0.82;41.31;100862.25;10483068;28;20711;-68
2024/01/11 18:05:49;;;;;;;28.20;17.60;;;;;;;0.54;41.34;100948.22;10469474;28;20952;-69
2024/01/11 18:10:51;;;;;;;32.70;17.60;;;;;;;0.12;41.52;101023.47;10477749;28;20232;-68
2024/01/11 18:15:52;;;;;;;29.67;18.37;;;;;;;-0.01;41.85;101022.47;10470945;28;20789;-69
2024/01/11 18:20:54;;;;;;;32.00;18.93;;;;;;;0.56;41.59;100919.16;10475465;28;20235;-68
2024/01/11 18:25:56;;;;;;;27.93;18.83;;;;;;;0.02;41.75;101064.41;10476305;28;20233;-69
2024/01/11 18:30:57;;;;;;;27.00;17.70;;;;;;;0.40;41.71;100922.69;10449903;28;20234;-70
2024/01/11 18:35:59;;;;;;;32.03;19.20;;;;;;;0.50;41.74;100858.00;10433302;28;20384;-70
2024/01/11 18:41:01;;;;;;;32.67;20.33;;;;;;;0.56;41.67;100884.91;10437827;28;20228;-70
2024/01/11 18:46:03;;;;;;;30.30;18.47;;;;;;;1.00;40.20;100871.66;10435478;28;20357;-70
2024/01/11 18:51:06;;;;;;;28.77;19.63;;;;;;;-0.30;41.66;101133.66;10436926;28;20232;-70
2024/01/11 18:56:17;;;;;;;32.87;21.53;;;;;;;-0.19;41.87;101038.34;10438331;28;20660;-69
2024/01/11 19:01:24;;;;;;;34.17;20.70;;;;;;;0.83;40.98;100813.88;10434928;28;20333;-68
2024/01/11 19:06:27;;;;;;;33.23;20.97;;;;;;;0.20;41.46;100978.31;10432774;28;20240;-68
2024/01/11 19:11:29;;;;;;;33.50;19.37;;;;;;;0.12;41.99;100933.97;10436121;28;20322;-67
2024/01/11 19:16:31;;;;;;;29.90;19.23;;;;;;;0.55;41.72;100769.97;10435173;28;20247;-67
2024/01/11 19:21:35;;;;;;;46.17;28.37;;;;;;;-0.44;42.08;101081.72;10435049;28;20236;-67
2024/01/11 19:26:47;;;;;;;31.83;20.93;;;;;;;0.34;41.14;100961.72;10440992;28;20250;-68
2024/01/11 19:31:49;;;;;;;34.40;21.43;;;;;;;0.94;41.34;100747.31;10431452;28;20776;-68
2024/01/11 19:36:51;;;;;;;33.53;22.63;;;;;;;0.35;40.96;100939.72;10445946;28;20232;-68
2024/01/11 19:41:53;;;;;;;35.87;22.17;;;;;;;1.54;39.72;100801.47;10437628;28;20284;-68
2024/01/11 19:46:54;;;;;;;33.33;20.83;;;;;;;1.59;39.34;100823.13;10447673;28;20240;-66
2024/01/11 19:51:57;;;;;;;32.27;21.07;;;;;;;0.79;40.29;100992.41;10477384;28;20268;-68
2024/01/11 19:57:01;;;;;;;33.33;21.27;;;;;;;1.46;40.29;100780.91;10480887;28;20232;-68
2024/01/11 20:02:03;;;;;;;43.33;24.63;;;;;;;-0.14;41.68;101101.25;10448198;28;20237;-69
2024/01/11 20:07:05;;;;;;;39.10;22.53;;;;;;;0.52;41.13;100929.03;10440084;28;20232;-70
2024/01/11 20:12:07;;;;;;;32.37;21.37;;;;;;;0.85;40.49;100927.97;10471447;28;20227;-69
2024/01/11 20:17:09;;;;;;;38.03;22.70;;;;;;;-0.07;41.99;101003.44;10484643;28;20235;-70
2024/01/11 20:22:11;;;;;;;33.97;21.60;;;;;;;1.76;39.73;100795.66;10480901;28;20234;-70
2024/01/11 20:27:12;;;;;;;33.80;20.83;;;;;;;0.59;41.22;100966.41;10477535;28;20227;-71
2024/01/11 20:32:14;;;;;;;38.23;22.83;;;;;;;0.53;41.31;101003.63;10480247;28;20235;-70
2024/01/11 20:37:18;;;;;;;35.20;20.63;;;;;;;0.74;41.37;100949.69;10481819;28;20232;-69
2024/01/11 20:42:20;;;;;;;29.57;20.07;;;;;;;1.08;40.79;100891.44;10477895;28;22442;-66
2024/01/11 20:47:22;;;;;;;32.87;20.30;;;;;;;0.36;41.71;100980.91;10475750;28;20621;-65
2024/01/11 20:52:25;;;;;;;33.60;19.07;;;;;;;1.06;41.41;100823.81;10474283;28;20243;-71
2024/01/11 20:57:28;;;;;;;34.50;20.30;;;;;;;1.57;39.47;100894.50;10462486;28;20224;-71
2024/01/11 21:02:29;;;;;;;39.07;23.20;;;;;;;0.39;41.26;101075.53;10466753;28;20341;-70
2024/01/11 21:07:31;;;;;;;32.03;19.03;;;;;;;1.93;39.74;100794.53;10436417;28;20243;-68
2024/01/11 21:12:33;;;;;;;33.53;20.27;;;;;;;0.66;41.03;101068.72;10467842;28;20267;-71
2024/01/11 21:17:35;;;;;;;34.27;20.60;;;;;;;1.42;40.34;100901.59;10473717;28;20551;-70
2024/01/11 21:22:38;;;;;;;36.17;20.23;;;;;;;0.53;41.53;101083.53;10428168;28;20243;-69
2024/01/11 21:27:39;;;;;;;35.60;19.37;;;;;;;0.81;41.53;101019.50;10471736;28;20227;-71
2024/01/11 21:32:41;;;;;;;31.83;20.93;;;;;;;1.23;40.53;100933.50;10467493;28;20248;-67
2024/01/11 21:37:44;;;;;;;36.57;22.17;;;;;;;0.89;41.62;100884.66;10475502;28;20403;-72
2024/01/11 21:42:48;;;;;;;34.10;20.67;;;;;;;0.49;41.49;101006.47;10438669;28;20239;-65
2024/01/11 21:47:50;;;;;;;29.37;20.73;;;;;;;0.22;41.65;100997.50;10471876;28;20238;-69
2024/01/11 21:52:53;;;;;;;34.10;19.63;;;;;;;-0.43;42.80;101095.75;10467294;28;20231;-68
2024/01/11 21:57:55;;;;;;;31.23;19.90;;;;;;;0.37;41.93;100914.97;10447051;28;20291;-68
2024/01/11 22:02:58;;;;;;;30.20;19.83;;;;;;;0.21;41.94;100980.84;10422706;28;20236;-70
2024/01/11 22:08:00;;;;;;;32.90;20.53;;;;;;;1.14;40.41;100880.50;10518514;28;20213;-70
2024/01/11 22:13:02;;;;;;;41.50;24.27;;;;;;;0.43;41.70;100948.03;10476521;28;20330;-65
2024/01/11 22:18:04;;;;;;;33.67;20.60;;;;;;;-0.08;41.63;101099.13;10446405;22;20239;-35
2024/01/11 22:23:06;;;;;;;32.60;21.30;;;;;;;-0.06;42.13;100999.06;10441116;28;20981;-34
2024/01/11 22:28:08;;;;;;;33.33;22.10;;;;;;;-0.28;42.62;101017.81;10443306;28;20204;-34
2024/01/11 22:33:10;;;;;;;35.50;21.70;;;;;;;-0.46;42.08;101107.28;10435882;28;20232;-34
2024/01/11 22:38:15;;;;;;;31.73;20.40;;;;;;;0.34;42.05;100861.66;10399651;28;20550;-34
2024/01/11 22:43:17;;;;;;;34.43;20.27;;;;;;;0.77;41.42;100865.19;10397370;28;20233;-34
2024/01/11 22:48:19;;;;;;;30.37;19.50;;;;;;;0.73;40.78;100911.09;10400272;28;20267;-33
2024/01/11 22:53:21;;;;;;;33.13;20.47;;;;;;;0.66;41.34;100926.44;10397638;28;20227;-33